createdAt,value
2023-05-19T00:01:00.924Z,81.60
2023-05-19T00:03:31.420Z,81.88
2023-05-19T00:06:02.584Z,82.31
2023-05-19T00:08:32.351Z,82.31
2023-05-19T00:11:02.090Z,82.28
2023-05-19T00:13:30.482Z,82.28
2023-05-19T00:15:59.070Z,81.96
2023-05-19T00:18:29.939Z,82.04
2023-05-19T00:20:58.482Z,82.12
2023-05-19T00:23:26.480Z,82.27
2023-05-19T00:25:54.500Z,81.95
2023-05-19T00:28:22.543Z,82.20
2023-05-19T00:30:51.705Z,82.24
2023-05-19T00:33:19.860Z,82.34
2023-05-19T00:35:48.033Z,82.45
2023-05-19T00:38:16.106Z,82.10
2023-05-19T00:40:44.697Z,82.17
2023-05-19T00:43:13.474Z,82.49
2023-05-19T00:45:41.987Z,82.52
2023-05-19T00:48:09.997Z,82.15
2023-05-19T00:50:38.813Z,82.60
2023-05-19T00:53:08.135Z,82.51
2023-05-19T00:55:40.564Z,82.55
2023-05-19T00:58:10.207Z,82.37
2023-05-19T01:00:39.944Z,82.16
2023-05-19T01:03:11.897Z,81.60
2023-05-19T01:05:42.553Z,81.42
2023-05-19T01:08:11.093Z,81.70
2023-05-19T01:10:39.263Z,81.95
2023-05-19T01:13:08.082Z,82.25
2023-05-19T01:16:07.180Z,82.17
2023-05-19T01:18:38.309Z,81.86
2023-05-19T01:21:37.243Z,81.95
2023-05-19T01:24:34.743Z,81.94
2023-05-19T01:27:33.840Z,81.42
2023-05-19T01:30:35.359Z,81.57
2023-05-19T01:33:08.838Z,81.66
2023-05-19T01:35:39.430Z,81.62
2023-05-19T01:38:13.307Z,81.45
2023-05-19T01:40:42.136Z,81.83
2023-05-19T01:43:16.286Z,81.84
2023-05-19T01:45:46.164Z,81.58
2023-05-19T01:48:15.685Z,81.88
2023-05-19T01:50:44.523Z,82.05
2023-05-19T01:53:12.810Z,81.84
2023-05-19T01:55:51.675Z,81.88
2023-05-19T01:58:44.847Z,82.18
2023-05-19T02:01:41.714Z,82.29
2023-05-19T02:04:16.023Z,82.34
2023-05-19T02:07:05.796Z,82.17
2023-05-19T02:10:05.544Z,82.42
2023-05-19T02:12:40.168Z,82.47
2023-05-19T02:15:15.921Z,82.55
2023-05-19T02:17:50.963Z,82.75
2023-05-19T02:20:19.389Z,82.78
2023-05-19T02:22:48.321Z,82.81
2023-05-19T02:25:16.631Z,83.10
2023-05-19T02:27:44.889Z,83.23
2023-05-19T02:30:13.038Z,83.41
2023-05-19T02:32:41.464Z,83.56
2023-05-19T02:35:11.031Z,83.71
2023-05-19T02:37:39.953Z,83.85
2023-05-19T02:40:09.127Z,83.75
2023-05-19T02:42:37.178Z,83.91
2023-05-19T02:45:05.751Z,83.85
2023-05-19T02:47:36.206Z,84.00
2023-05-19T02:50:06.517Z,84.14
2023-05-19T02:52:34.573Z,84.31
2023-05-19T02:55:02.763Z,84.21
2023-05-19T02:57:31.951Z,83.75
2023-05-19T03:00:00.339Z,84.47
2023-05-19T03:02:28.734Z,84.65
2023-05-19T03:04:57.096Z,84.85
2023-05-19T03:07:25.595Z,84.66
2023-05-19T03:09:53.814Z,84.68
2023-05-19T03:12:22.239Z,84.42
2023-05-19T03:14:50.813Z,84.27
2023-05-19T03:17:18.889Z,84.11
2023-05-19T03:19:47.066Z,84.11
2023-05-19T03:22:15.329Z,84.39
2023-05-19T03:24:43.297Z,84.42
2023-05-19T03:27:12.896Z,84.06
2023-05-19T03:29:41.489Z,83.97
2023-05-19T03:32:09.555Z,84.09
2023-05-19T03:34:37.933Z,84.02
2023-05-19T03:37:05.864Z,83.70
2023-05-19T03:39:34.908Z,83.34
2023-05-19T03:42:03.471Z,83.15
2023-05-19T03:44:31.543Z,83.33
2023-05-19T03:47:00.694Z,83.06
2023-05-19T03:49:49.097Z,83.31
2023-05-19T03:52:40.513Z,83.16
2023-05-19T03:55:21.579Z,82.95
2023-05-19T03:57:49.688Z,83.07
2023-05-19T04:00:18.442Z,83.04
2023-05-19T04:02:46.781Z,82.65
2023-05-19T04:05:15.710Z,82.58
2023-05-19T04:07:43.787Z,82.31
2023-05-19T04:10:12.924Z,82.15
2023-05-19T04:12:41.170Z,81.98
2023-05-19T04:15:12.098Z,82.19
2023-05-19T04:17:40.708Z,81.79
2023-05-19T04:20:10.480Z,81.42
2023-05-19T04:22:38.491Z,80.83
2023-05-19T04:25:07.700Z,80.56
2023-05-19T04:27:39.624Z,80.40
2023-05-19T04:30:08.613Z,79.62
2023-05-19T04:32:37.809Z,78.62
2023-05-19T04:35:07.040Z,77.97
2023-05-19T04:37:37.544Z,77.44
2023-05-19T04:40:11.336Z,77.36
2023-05-19T04:42:43.236Z,76.61
2023-05-19T04:45:14.356Z,76.48
2023-05-19T04:47:44.587Z,76.33
2023-05-19T04:50:13.194Z,75.26
2023-05-19T04:52:45.928Z,74.36
2023-05-19T04:55:14.246Z,73.63
2023-05-19T04:57:43.088Z,73.26
2023-05-19T05:00:15.502Z,73.29
2023-05-19T05:03:14.815Z,71.95
2023-05-19T05:05:43.028Z,70.90
2023-05-19T05:08:12.208Z,70.38
2023-05-19T05:10:42.651Z,70.34
2023-05-19T05:13:11.946Z,70.42
2023-05-19T05:15:41.274Z,70.12
2023-05-19T05:18:11.032Z,69.16
2023-05-19T05:20:39.523Z,68.68
2023-05-19T05:23:09.754Z,68.83
2023-05-19T05:25:39.085Z,68.42
2023-05-19T05:28:07.356Z,68.03
2023-05-19T05:30:36.567Z,65.93
2023-05-19T05:33:06.524Z,66.32
2023-05-19T05:35:38.364Z,65.03
2023-05-19T05:38:07.262Z,65.13
2023-05-19T05:40:35.754Z,63.55
2023-05-19T05:43:04.256Z,63.45
2023-05-19T05:45:34.308Z,63.63
2023-05-19T05:48:03.497Z,63.71
2023-05-19T05:50:32.489Z,63.74
2023-05-19T05:53:02.074Z,63.66
2023-05-19T05:55:31.412Z,63.38
2023-05-19T05:58:02.452Z,63.24
2023-05-19T06:00:31.583Z,62.96
2023-05-19T06:03:00.449Z,62.81
2023-05-19T06:05:28.817Z,61.70
2023-05-19T06:07:58.125Z,61.37
2023-05-19T06:10:28.892Z,60.96
2023-05-19T06:12:57.399Z,60.25
2023-05-19T06:15:25.571Z,59.50
2023-05-19T06:18:22.666Z,58.41
2023-05-19T06:20:51.233Z,56.89
2023-05-19T06:23:19.353Z,56.47
2023-05-19T06:25:47.700Z,56.69
2023-05-19T06:28:16.055Z,56.52
2023-05-19T06:30:45.036Z,56.94
2023-05-19T06:33:20.113Z,56.34
2023-05-19T06:35:48.344Z,56.00
2023-05-19T06:38:16.809Z,54.86
2023-05-19T06:40:44.986Z,56.01
2023-05-19T06:43:12.905Z,56.06
2023-05-19T06:46:01.700Z,55.84
2023-05-19T06:48:30.900Z,55.83
2023-05-19T06:50:59.893Z,56.00
2023-05-19T06:53:28.329Z,55.71
2023-05-19T06:55:59.933Z,56.21
2023-05-19T06:58:32.015Z,55.57
2023-05-19T07:01:00.645Z,56.18
2023-05-19T07:03:32.253Z,55.71
2023-05-19T07:06:00.539Z,55.52
2023-05-19T07:08:29.652Z,55.77
2023-05-19T07:10:58.904Z,54.65
2023-05-19T07:13:27.551Z,54.01
2023-05-19T07:15:56.499Z,54.44
2023-05-19T07:18:25.638Z,55.07
2023-05-19T07:20:54.116Z,56.12
2023-05-19T07:23:22.276Z,56.21
2023-05-19T07:25:55.204Z,55.49
2023-05-19T07:28:23.275Z,55.15
2023-05-19T07:30:52.133Z,54.55
2023-05-19T07:33:20.134Z,53.78
2023-05-19T07:35:48.764Z,54.16
2023-05-19T07:38:16.841Z,54.39
2023-05-19T07:40:44.824Z,54.47
2023-05-19T07:43:13.196Z,53.88
2023-05-19T07:45:41.346Z,54.36
2023-05-19T07:48:09.476Z,53.69
2023-05-19T07:50:37.858Z,53.98
2023-05-19T07:53:06.053Z,54.60
2023-05-19T07:55:34.207Z,54.37
2023-05-19T07:58:02.526Z,53.27
2023-05-19T08:00:31.017Z,52.70
2023-05-19T08:03:00.130Z,53.30
2023-05-19T08:05:30.084Z,52.85
2023-05-19T08:07:58.067Z,52.30
2023-05-19T08:10:26.202Z,51.01
2023-05-19T08:12:54.411Z,49.66
2023-05-19T08:15:22.521Z,47.93
2023-05-19T08:17:50.664Z,46.22
2023-05-19T08:20:19.766Z,45.99
2023-05-19T08:22:48.044Z,46.65
2023-05-19T08:25:16.036Z,45.26
2023-05-19T08:27:43.902Z,44.98
2023-05-19T08:30:12.722Z,45.33
2023-05-19T08:32:40.945Z,45.99
2023-05-19T08:35:09.767Z,44.76
2023-05-19T08:37:38.775Z,43.85
2023-05-19T08:40:09.001Z,42.79
2023-05-19T08:42:37.058Z,41.92
2023-05-19T08:45:06.019Z,42.21
2023-05-19T08:47:34.469Z,41.17
2023-05-19T08:50:07.931Z,41.32
2023-05-19T08:53:01.656Z,42.22
2023-05-19T08:55:59.187Z,43.34
2023-05-19T08:58:28.903Z,44.89
2023-05-19T09:00:59.974Z,45.25
2023-05-19T09:03:29.239Z,45.62
2023-05-19T09:05:57.889Z,45.31
2023-05-19T09:08:26.046Z,45.04
2023-05-19T09:10:54.145Z,43.80
2023-05-19T09:13:22.516Z,42.76
2023-05-19T09:15:52.966Z,41.90
2023-05-19T09:18:20.921Z,41.68
2023-05-19T09:20:49.064Z,41.22
2023-05-19T09:23:18.381Z,38.63
2023-05-19T09:25:51.140Z,38.12
2023-05-19T09:28:33.403Z,38.34
2023-05-19T09:31:03.213Z,39.86
2023-05-19T09:33:34.534Z,39.36
2023-05-19T09:36:06.201Z,39.47
2023-05-19T09:38:39.501Z,40.66
2023-05-19T09:41:09.206Z,41.27
2023-05-19T09:43:37.533Z,42.00
2023-05-19T09:46:07.574Z,42.59
2023-05-19T09:48:36.816Z,43.34
2023-05-19T09:51:08.157Z,43.62
2023-05-19T09:53:36.710Z,43.38
2023-05-19T09:56:05.526Z,43.32
2023-05-19T09:58:37.582Z,43.78
2023-05-19T10:01:06.458Z,44.35
2023-05-19T10:03:34.995Z,45.14
2023-05-19T10:06:05.658Z,45.12
2023-05-19T10:08:34.457Z,44.89
2023-05-19T10:11:03.314Z,44.73
2023-05-19T10:13:35.271Z,45.75
2023-05-19T10:16:03.922Z,46.54
2023-05-19T10:18:33.925Z,45.78
2023-05-19T10:21:03.290Z,45.66
2023-05-19T10:23:31.230Z,45.15
2023-05-19T10:26:01.973Z,44.32
2023-05-19T10:28:37.279Z,43.98
2023-05-19T10:31:10.025Z,41.95
2023-05-19T10:34:13.368Z,40.51
2023-05-19T10:36:48.147Z,40.12
2023-05-19T10:39:19.401Z,39.05
2023-05-19T10:41:59.101Z,39.01
2023-05-19T10:45:02.834Z,38.75
2023-05-19T10:47:31.352Z,37.39
2023-05-19T10:50:00.816Z,37.87
2023-05-19T10:52:31.152Z,38.99
2023-05-19T10:54:59.236Z,38.70
2023-05-19T10:57:28.539Z,38.33
2023-05-19T10:59:57.576Z,37.51
2023-05-19T11:02:40.229Z,37.47
2023-05-19T11:05:10.894Z,36.56
2023-05-19T11:07:43.568Z,35.01
2023-05-19T11:10:12.537Z,35.06
2023-05-19T11:12:43.375Z,34.40
2023-05-19T11:15:15.789Z,34.80
2023-05-19T11:17:48.654Z,34.82
2023-05-19T11:20:25.738Z,34.21
2023-05-19T11:23:09.991Z,33.88
2023-05-19T11:25:51.732Z,33.22
2023-05-19T11:28:26.055Z,33.53
2023-05-19T11:30:57.897Z,34.35
2023-05-19T11:33:29.292Z,33.89
2023-05-19T11:36:00.284Z,33.61
2023-05-19T11:38:30.502Z,31.62
2023-05-19T11:40:58.696Z,30.57
2023-05-19T11:43:27.108Z,30.86
2023-05-19T11:45:56.083Z,31.46
2023-05-19T11:48:26.526Z,30.88
2023-05-19T11:50:56.913Z,30.20
2023-05-19T11:53:25.013Z,30.42
2023-05-19T11:55:53.440Z,30.59
2023-05-19T11:58:26.952Z,29.70
2023-05-19T12:00:55.469Z,29.34
2023-05-19T12:03:28.794Z,29.55
2023-05-19T12:05:57.142Z,29.90
2023-05-19T12:08:25.722Z,30.17
2023-05-19T12:10:54.392Z,31.25
2023-05-19T12:13:23.163Z,30.64
2023-05-19T12:15:53.283Z,31.57
2023-05-19T12:18:21.677Z,32.50
2023-05-19T12:20:50.352Z,32.41
2023-05-19T12:23:19.194Z,30.58
2023-05-19T12:25:48.422Z,30.50
2023-05-19T12:28:16.761Z,31.88
2023-05-19T12:30:48.918Z,32.49
2023-05-19T12:33:17.377Z,31.17
2023-05-19T12:35:48.115Z,31.89
2023-05-19T12:38:16.528Z,32.42
2023-05-19T12:40:44.854Z,30.78
2023-05-19T12:43:23.099Z,31.70
2023-05-19T12:45:51.434Z,33.25
2023-05-19T12:48:23.198Z,31.65
2023-05-19T12:50:55.674Z,31.10
2023-05-19T12:53:27.873Z,31.46
2023-05-19T12:55:56.015Z,32.67
2023-05-19T12:58:24.514Z,32.12
2023-05-19T13:00:59.821Z,32.04
2023-05-19T13:03:28.308Z,32.33
2023-05-19T13:05:56.745Z,33.21
2023-05-19T13:08:24.756Z,31.36
2023-05-19T13:10:52.958Z,31.12
2023-05-19T13:13:22.072Z,32.57
2023-05-19T13:15:50.343Z,33.16
2023-05-19T13:18:18.949Z,31.48
2023-05-19T13:20:49.306Z,32.24
2023-05-19T13:23:17.394Z,32.31
2023-05-19T13:25:45.764Z,32.75
2023-05-19T13:28:13.774Z,33.84
2023-05-19T13:30:44.211Z,36.47
2023-05-19T13:33:12.674Z,38.32
2023-05-19T13:35:41.324Z,39.27
2023-05-19T13:38:10.473Z,41.07
2023-05-19T13:40:40.233Z,43.02
2023-05-19T13:43:09.383Z,47.43
2023-05-19T13:45:37.620Z,52.04
2023-05-19T13:48:07.540Z,53.81
2023-05-19T13:50:36.061Z,55.31
2023-05-19T13:53:04.302Z,55.98
2023-05-19T13:55:33.360Z,56.32
2023-05-19T13:58:01.636Z,57.03
2023-05-19T14:00:31.922Z,58.02
2023-05-19T14:03:00.583Z,59.35
2023-05-19T14:05:29.249Z,59.34
2023-05-19T14:07:58.086Z,58.97
2023-05-19T14:10:27.001Z,58.05
2023-05-19T14:13:28.963Z,57.37
2023-05-19T14:15:44.338Z,57.36
2023-05-19T14:18:12.471Z,57.46
2023-05-19T14:20:41.035Z,56.43
2023-05-19T14:23:09.390Z,55.82
2023-05-19T14:25:37.565Z,55.93
2023-05-19T14:28:05.926Z,56.33
2023-05-19T14:30:34.317Z,56.80
2023-05-19T14:33:02.904Z,57.07
2023-05-19T14:35:31.114Z,56.30
2023-05-19T14:37:59.297Z,55.56
2023-05-19T14:40:27.363Z,55.08
2023-05-19T14:42:55.671Z,54.28
2023-05-19T14:45:24.275Z,53.66
2023-05-19T14:47:52.796Z,52.88
2023-05-19T14:50:21.116Z,52.61
2023-05-19T14:52:49.120Z,52.09
2023-05-19T14:55:17.131Z,51.21
2023-05-19T14:57:46.079Z,50.98
2023-05-19T15:00:14.564Z,50.76
2023-05-19T15:02:42.787Z,49.88
2023-05-19T15:05:12.069Z,49.81
2023-05-19T15:07:40.615Z,49.80
2023-05-19T15:10:09.131Z,49.29
2023-05-19T15:12:37.649Z,48.84
2023-05-19T15:15:06.559Z,48.35
2023-05-19T15:17:34.505Z,48.07
2023-05-19T15:20:02.988Z,48.12
2023-05-19T15:22:31.159Z,48.48
2023-05-19T15:24:59.480Z,49.26
2023-05-19T15:27:27.751Z,49.55
2023-05-19T15:29:56.293Z,49.33
2023-05-19T15:32:24.460Z,48.99
2023-05-19T15:34:53.134Z,48.72
2023-05-19T15:37:21.129Z,48.26
2023-05-19T15:39:49.521Z,47.09
2023-05-19T15:42:17.519Z,46.29
2023-05-19T15:44:46.471Z,45.66
2023-05-19T15:47:14.668Z,45.71
2023-05-19T15:49:43.166Z,45.57
2023-05-19T15:52:11.289Z,44.62
2023-05-19T15:54:39.217Z,43.96
2023-05-19T15:57:07.476Z,43.65
2023-05-19T15:59:35.641Z,43.37
2023-05-19T16:02:03.938Z,43.55
2023-05-19T16:04:33.434Z,43.44
2023-05-19T16:07:01.577Z,43.12
2023-05-19T16:09:29.556Z,43.37
2023-05-19T16:11:57.995Z,44.20
2023-05-19T16:14:29.462Z,45.56
2023-05-19T16:16:57.588Z,46.24
2023-05-19T16:19:26.742Z,46.02
2023-05-19T16:21:55.105Z,45.91
2023-05-19T16:24:23.172Z,45.89
2023-05-19T16:26:53.897Z,46.53
2023-05-19T16:29:22.377Z,46.86
2023-05-19T16:31:50.538Z,47.04
2023-05-19T16:34:18.571Z,47.26
2023-05-19T16:36:46.647Z,47.54
2023-05-19T16:39:14.689Z,47.71
2023-05-19T16:41:42.802Z,47.89
2023-05-19T16:44:14.457Z,48.07
2023-05-19T16:46:43.096Z,48.75
2023-05-19T16:49:11.420Z,50.01
2023-05-19T16:51:39.646Z,50.35
2023-05-19T16:54:07.798Z,51.05
2023-05-19T16:56:36.228Z,51.53
2023-05-19T16:59:04.141Z,51.72
2023-05-19T17:01:33.034Z,52.65
2023-05-19T17:04:01.313Z,52.96
2023-05-19T17:06:29.540Z,53.99
2023-05-19T17:08:57.759Z,54.42
2023-05-19T17:11:27.366Z,54.91
2023-05-19T17:13:55.399Z,55.98
2023-05-19T17:16:24.148Z,56.51
2023-05-19T17:18:52.418Z,57.06
2023-05-19T17:21:20.492Z,56.89
2023-05-19T17:23:49.619Z,57.33
2023-05-19T17:26:17.999Z,57.01
2023-05-19T17:28:46.617Z,57.38
2023-05-19T17:31:15.976Z,57.72
2023-05-19T17:33:44.403Z,57.69
2023-05-19T17:36:12.801Z,58.38
2023-05-19T17:38:42.174Z,58.70
2023-05-19T17:41:10.428Z,59.66
2023-05-19T17:43:40.288Z,60.58
2023-05-19T17:46:08.913Z,61.05
2023-05-19T17:48:37.476Z,61.62
2023-05-19T17:51:07.284Z,61.51
2023-05-19T17:53:36.592Z,61.97
2023-05-19T17:56:07.428Z,61.68
2023-05-19T17:58:36.566Z,61.44
2023-05-19T18:01:05.485Z,61.60
2023-05-19T18:03:34.267Z,61.80
2023-05-19T18:06:02.941Z,61.82
2023-05-19T18:08:32.458Z,62.32
2023-05-19T18:11:00.842Z,62.37
2023-05-19T18:13:29.020Z,62.66
2023-05-19T18:15:59.338Z,62.61
2023-05-19T18:18:27.528Z,62.53
2023-05-19T18:20:55.957Z,63.03
2023-05-19T18:23:23.971Z,62.97
2023-05-19T18:25:53.431Z,63.40
2023-05-19T18:28:21.719Z,63.48
2023-05-19T18:31:05.131Z,63.37
2023-05-19T18:33:33.450Z,63.52
2023-05-19T18:36:01.575Z,63.85
2023-05-19T18:38:29.764Z,64.02
2023-05-19T18:40:58.346Z,64.43
2023-05-19T18:43:27.269Z,64.03
2023-05-19T18:45:55.488Z,64.03
2023-05-19T18:48:25.666Z,64.76
2023-05-19T18:50:54.528Z,65.71
2023-05-19T18:53:22.835Z,66.54
2023-05-19T18:55:51.066Z,66.13
2023-05-19T18:58:19.104Z,66.02
2023-05-19T19:00:47.394Z,65.97
2023-05-19T19:03:16.214Z,65.95
2023-05-19T19:05:45.521Z,65.94
2023-05-19T19:08:13.936Z,65.78
2023-05-19T19:10:42.684Z,65.69
2023-05-19T19:13:11.150Z,65.41
2023-05-19T19:15:39.788Z,65.22
2023-05-19T19:18:08.461Z,65.25
2023-05-19T19:20:36.704Z,65.45
2023-05-19T19:23:06.892Z,65.48
2023-05-19T19:25:35.491Z,65.25
2023-05-19T19:28:03.966Z,65.10
2023-05-19T19:30:32.395Z,64.57
2023-05-19T19:33:01.095Z,64.22
2023-05-19T19:35:29.429Z,64.27
2023-05-19T19:37:58.848Z,64.09
2023-05-19T19:40:27.293Z,63.98
2023-05-19T19:42:55.380Z,64.21
2023-05-19T19:45:23.613Z,64.13
2023-05-19T19:47:51.858Z,64.01
2023-05-19T19:50:20.199Z,64.01
2023-05-19T19:52:48.480Z,63.95
2023-05-19T19:55:16.679Z,63.91
2023-05-19T19:57:47.308Z,63.85
2023-05-19T20:00:16.382Z,63.99
2023-05-19T20:03:02.830Z,64.38
2023-05-19T20:05:31.641Z,64.51
2023-05-19T20:08:00.105Z,65.02
2023-05-19T20:10:28.234Z,65.05
2023-05-19T20:12:58.955Z,65.14
2023-05-19T20:15:27.237Z,65.55
2023-05-19T20:17:55.745Z,66.12
2023-05-19T20:20:24.500Z,66.36
2023-05-19T20:22:52.406Z,66.61
2023-05-19T20:25:20.943Z,67.17
2023-05-19T20:27:49.009Z,67.79
2023-05-19T20:30:17.294Z,67.58
2023-05-19T20:32:46.980Z,67.40
2023-05-19T20:35:15.789Z,67.49
2023-05-19T20:37:43.974Z,67.90
2023-05-19T20:40:13.056Z,68.04
2023-05-19T20:42:41.526Z,67.85
2023-05-19T20:45:09.934Z,67.98
2023-05-19T20:47:38.518Z,68.13
2023-05-19T20:50:07.388Z,68.24
2023-05-19T20:52:36.234Z,68.70
2023-05-19T20:55:04.596Z,69.13
2023-05-19T20:57:32.935Z,68.78
2023-05-19T21:00:01.197Z,68.65
2023-05-19T21:02:29.437Z,68.94
2023-05-19T21:04:57.874Z,68.85
2023-05-19T21:07:26.405Z,69.32
2023-05-19T21:09:54.751Z,69.82
2023-05-19T21:12:25.429Z,70.51
2023-05-19T21:14:53.637Z,70.50
2023-05-19T21:17:21.807Z,70.68
2023-05-19T21:19:50.769Z,71.05
2023-05-19T21:22:19.418Z,71.34
2023-05-19T21:24:47.877Z,71.74
2023-05-19T21:27:16.034Z,72.10
2023-05-19T21:29:44.015Z,72.38
2023-05-19T21:32:12.479Z,72.29
2023-05-19T21:34:40.867Z,71.96
2023-05-19T21:37:08.891Z,71.91
2023-05-19T21:39:37.094Z,72.50
2023-05-19T21:42:06.601Z,72.77
2023-05-19T21:44:34.795Z,72.75
2023-05-19T21:47:03.043Z,73.42
2023-05-19T21:49:31.658Z,74.23
2023-05-19T21:51:59.995Z,74.28
2023-05-19T21:54:28.270Z,74.39
2023-05-19T21:56:56.166Z,74.41
2023-05-19T21:59:25.002Z,74.41
2023-05-19T22:01:53.269Z,73.87
2023-05-19T22:04:22.829Z,74.43
2023-05-19T22:06:51.304Z,74.90
2023-05-19T22:09:19.476Z,75.17
2023-05-19T22:11:47.526Z,75.42
2023-05-19T22:14:15.939Z,75.28
2023-05-19T22:16:44.274Z,75.21
2023-05-19T22:19:12.986Z,74.62
2023-05-19T22:21:41.457Z,75.04
2023-05-19T22:24:09.690Z,75.17
2023-05-19T22:26:38.130Z,74.70
2023-05-19T22:29:06.403Z,74.73
2023-05-19T22:31:34.385Z,74.97
2023-05-19T22:34:02.494Z,75.45
2023-05-19T22:36:31.545Z,75.47
2023-05-19T22:38:59.611Z,75.57
2023-05-19T22:41:27.693Z,74.99
2023-05-19T22:43:55.776Z,75.16
2023-05-19T22:46:23.824Z,75.49
2023-05-19T22:48:52.186Z,75.79
2023-05-19T22:51:20.382Z,75.65
2023-05-19T22:53:49.279Z,75.72
2023-05-19T22:56:17.870Z,75.87
2023-05-19T22:58:45.852Z,76.00
2023-05-19T23:01:14.117Z,76.06
2023-05-19T23:03:43.656Z,75.74
2023-05-19T23:06:11.687Z,76.14
2023-05-19T23:08:40.044Z,76.77
2023-05-19T23:11:08.441Z,77.41
2023-05-19T23:13:36.401Z,77.37
2023-05-19T23:16:06.867Z,77.61
2023-05-19T23:18:34.903Z,77.62
2023-05-19T23:21:02.921Z,77.84
2023-05-19T23:23:31.063Z,77.98
2023-05-19T23:25:59.295Z,77.68
2023-05-19T23:28:27.447Z,77.72
2023-05-19T23:30:56.721Z,77.56
2023-05-19T23:33:25.226Z,77.90
2023-05-19T23:35:54.549Z,78.19
2023-05-19T23:38:22.672Z,78.44
2023-05-19T23:40:51.231Z,78.92
2023-05-19T23:43:19.495Z,78.94
2023-05-19T23:45:47.571Z,79.20
2023-05-19T23:48:15.846Z,79.38
2023-05-19T23:50:43.943Z,78.75
2023-05-19T23:53:11.874Z,79.30
2023-05-19T23:55:40.015Z,79.52
2023-05-19T23:58:08.316Z,78.64
